首页
METAR-TAF:

METAR-TAF

机场 :

Stornoway, 苏格兰

纬度: 58-13N, 经度: 006-19W, 海拔: 9米

当前天气观测

该预报发布于24分钟前的17:20 UTC
风速8节,风向西南,在南转西南西之间变化
温度 14°C
湿度 67%
气压 998 hPa
能见度10公里或以上

METAR: EGPO 041720Z AUTO 23008KT 200V260 9999 BKN033/// 14/08 Q0998

时间: 18:44 (17:44 UTC)

预报

该预报发布于3小时和50分钟前的13:54 UTC
预报有效从04日的 15点(UTC)到 04日的 24点(UTC)
风速9节,风向西转西南
能见度10公里或以上
散云层高于3000英尺
几率 30% :
短暂存在
从 04日的 21点(UTC)到 04日的 24点(UTC)
能見度: 6000
多云层高于1400英尺

TAF: EGPO 041354Z 0415/0424 24009KT 9999 SCT030 PROB30 TEMPO 0421/0424 6000 RA BKN014

超过4000个机场的气象观测和天气预报(METAR&TAF报告)。

可查询的气象台以黄色和红色小点在地图上表示。

将鼠标移到小点上方,可查看气象台名称。

然后点击查看天气观测和预报。

如需切换地图:点击带黑十字的绿色按钮放大地图;点击带横线的绿色按钮缩小地图;或者点击绿色箭头查看邻近地区的地图。


METAR-TAF: